Time;durP1;ratioP1;P1;durP2;ratioP2;P2;SDS_P1;SDS_P2;PMS_P1;PMS_P2;Temp;Humidity;BMP_temperature;BMP_pressure;BME280_temperature;BME280_humidity;BME280_pressure;Samples;Min_cycle;Max_cycle;Signal;HPM_P1;HPM_P2
2023/05/26 00:02:06;;;;;;;20.00;4.35;;;;;;;13.41;57.21;102775.13;6244521;22;20435;-88
2023/05/26 00:04:32;;;;;;;13.93;3.97;;;;;;;13.42;57.18;102784.84;6273077;22;20014;-89
2023/05/26 00:06:58;;;;;;;13.65;4.38;;;;;;;13.35;57.22;102783.25;6272569;22;20030;-89
2023/05/26 00:09:24;;;;;;;24.35;5.30;;;;;;;13.25;57.52;102773.72;6245813;22;20015;-88
2023/05/26 00:11:49;;;;;;;18.95;4.35;;;;;;;13.24;57.33;102786.13;6271963;22;20343;-89
2023/05/26 00:14:15;;;;;;;20.73;4.43;;;;;;;13.20;57.35;102788.84;6272981;22;20078;-89
2023/05/26 00:16:42;;;;;;;14.43;4.30;;;;;;;13.11;57.98;102776.63;6245337;22;20030;-89
2023/05/26 00:19:08;;;;;;;20.75;4.85;;;;;;;13.11;57.90;102783.72;6272768;22;20075;-89
2023/05/26 00:21:35;;;;;;;21.00;5.00;;;;;;;13.08;58.38;102789.94;6271751;22;20110;-89
2023/05/26 00:24:01;;;;;;;19.55;4.40;;;;;;;12.89;58.36;102778.81;6244159;22;20552;-89
2023/05/26 00:26:26;;;;;;;19.10;4.50;;;;;;;12.99;58.01;102790.13;6243863;22;20003;-89
2023/05/26 00:28:51;;;;;;;16.92;4.60;;;;;;;13.00;58.30;102797.16;6272295;22;20011;-88
2023/05/26 00:31:17;;;;;;;15.95;3.92;;;;;;;12.94;58.18;102784.03;6244855;22;20035;-89
2023/05/26 00:33:42;;;;;;;18.13;4.75;;;;;;;12.86;58.24;102778.84;6245557;22;20407;-88
2023/05/26 00:36:08;;;;;;;25.35;5.32;;;;;;;12.84;58.39;102779.78;6245141;22;20043;-89
2023/05/26 00:38:34;;;;;;;15.00;4.60;;;;;;;12.86;58.84;102800.09;6244314;22;20007;-88
2023/05/26 00:40:59;;;;;;;18.90;4.28;;;;;;;12.76;58.76;102795.84;6244637;22;19995;-88
2023/05/26 00:43:25;;;;;;;14.73;4.15;;;;;;;12.68;59.06;102795.09;6270398;22;20037;-88
2023/05/26 00:45:50;;;;;;;15.50;4.15;;;;;;;12.64;59.66;102796.09;6243948;22;20014;-89
2023/05/26 00:48:15;;;;;;;26.02;4.53;;;;;;;12.56;59.67;102784.72;6244524;22;20039;-89
2023/05/26 00:50:41;;;;;;;22.70;4.32;;;;;;;12.48;60.13;102784.84;6272254;22;20004;-88
2023/05/26 00:53:07;;;;;;;12.68;3.85;;;;;;;12.41;60.52;102780.56;6244873;22;20012;-88
2023/05/26 00:55:33;;;;;;;23.92;5.05;;;;;;;12.40;60.05;102794.69;6270449;22;20035;-88
2023/05/26 00:57:59;;;;;;;14.73;4.13;;;;;;;12.36;60.47;102790.38;6245688;22;20053;-89
2023/05/26 01:00:26;;;;;;;22.63;4.22;;;;;;;12.37;60.55;102790.34;6244034;22;20454;-89
2023/05/26 01:02:55;;;;;;;16.13;3.90;;;;;;;12.31;60.63;102792.19;6243240;22;20014;-89
2023/05/26 01:05:21;;;;;;;20.10;4.07;;;;;;;12.30;60.75;102801.06;6270571;22;20008;-89
2023/05/26 01:07:46;;;;;;;16.58;4.10;;;;;;;12.23;61.02;102793.22;6271553;22;20391;-88
2023/05/26 01:10:12;;;;;;;17.80;4.95;;;;;;;12.21;60.81;102788.81;6270920;22;20014;-88
2023/05/26 01:12:48;;;;;;;25.00;4.43;;;;;;;12.20;61.31;102803.84;6270656;22;19999;-89
2023/05/26 01:15:21;;;;;;;21.75;3.83;;;;;;;12.20;61.04;102809.16;6243906;22;20461;-89
2023/05/26 01:17:57;;;;;;;23.25;5.03;;;;;;;12.17;61.14;102805.66;6244359;22;20481;-89
2023/05/26 01:20:26;;;;;;;17.17;3.30;;;;;;;12.07;61.06;102791.69;6243929;22;20004;-88
2023/05/26 01:23:29;;;;;;;17.58;4.25;;;;;;;12.20;60.68;102808.28;6243734;22;20491;-88
2023/05/26 01:26:21;;;;;;;15.93;3.85;;;;;;;12.12;61.17;102797.78;6271166;22;19999;-89
2023/05/26 01:28:50;;;;;;;14.10;3.92;;;;;;;12.06;61.27;102800.53;6243726;22;20004;-89
2023/05/26 01:31:16;;;;;;;21.65;3.65;;;;;;;12.03;61.47;102792.66;6270794;22;20071;-89
2023/05/26 01:33:41;;;;;;;17.92;4.22;;;;;;;12.08;61.63;102808.50;6243464;22;20007;-88
2023/05/26 01:36:06;;;;;;;16.92;4.10;;;;;;;11.91;61.80;102799.00;6271805;22;20028;-88
2023/05/26 01:38:32;;;;;;;20.10;3.97;;;;;;;11.87;61.91;102793.75;6245164;22;20011;-89
2023/05/26 01:41:12;;;;;;;18.20;3.78;;;;;;;11.88;61.52;102798.16;6271589;22;20499;-89
2023/05/26 01:44:03;;;;;;;21.23;4.65;;;;;;;11.96;61.74;102812.19;6243885;22;20011;-88
2023/05/26 01:46:36;;;;;;;17.35;3.90;;;;;;;11.92;62.00;102808.69;6243967;22;20513;-88
2023/05/26 01:49:04;;;;;;;20.77;4.82;;;;;;;11.88;61.55;102811.41;6243929;22;20082;-88
2023/05/26 01:51:33;;;;;;;19.75;4.20;;;;;;;11.84;61.61;102815.88;6242654;22;20379;-88
2023/05/26 01:54:00;;;;;;;18.90;4.32;;;;;;;11.87;62.12;102814.97;6218135;22;20010;-89
2023/05/26 01:56:26;;;;;;;26.23;4.70;;;;;;;11.72;62.05;102808.06;6271586;22;20525;-89
2023/05/26 01:58:53;;;;;;;15.40;4.05;;;;;;;11.69;62.27;102811.63;6272234;22;20007;-89
2023/05/26 02:01:18;;;;;;;17.05;3.95;;;;;;;11.61;62.29;102804.66;6244345;22;20086;-89
2023/05/26 02:03:43;;;;;;;18.08;3.97;;;;;;;11.63;62.60;102813.50;6271729;22;20105;-88
2023/05/26 02:06:09;;;;;;;14.60;4.03;;;;;;;11.58;61.98;102807.38;6271432;22;20133;-88
2023/05/26 02:08:36;;;;;;;15.45;4.07;;;;;;;11.60;62.23;102814.38;6245358;22;19999;-89
2023/05/26 02:11:01;;;;;;;16.58;3.97;;;;;;;11.60;62.48;102824.09;6271131;22;20313;-88
2023/05/26 02:13:26;;;;;;;20.50;4.55;;;;;;;11.48;62.64;102815.44;6270756;22;20007;-88
2023/05/26 02:15:52;;;;;;;20.15;4.15;;;;;;;11.45;62.56;102811.94;6245635;22;20008;-88
2023/05/26 02:18:17;;;;;;;18.60;4.32;;;;;;;11.50;62.64;102823.34;6245990;22;20086;-88
2023/05/26 02:20:42;;;;;;;16.70;4.15;;;;;;;11.49;62.48;102824.25;6246646;22;20004;-89
2023/05/26 02:23:07;;;;;;;19.38;4.15;;;;;;;11.49;62.33;102826.91;6244101;22;20015;-89
2023/05/26 02:25:33;;;;;;;21.98;4.70;;;;;;;11.49;62.47;102829.56;6272776;22;20079;-88
2023/05/26 02:27:58;;;;;;;23.35;4.47;;;;;;;11.39;62.60;102819.97;6272449;22;20059;-89
2023/05/26 02:30:23;;;;;;;19.73;3.72;;;;;;;11.35;62.51;102826.19;6246597;22;20378;-88
2023/05/26 02:32:48;;;;;;;21.55;4.05;;;;;;;11.36;62.99;102825.28;6244374;22;20083;-88
2023/05/26 02:35:14;;;;;;;24.15;4.80;;;;;;;11.34;62.93;102841.22;6273266;22;20026;-88
2023/05/26 02:37:41;;;;;;;23.27;4.03;;;;;;;11.23;63.00;102833.34;6245482;22;20045;-88
2023/05/26 02:40:09;;;;;;;23.33;4.38;;;;;;;11.23;62.80;102835.13;6273562;22;20431;-89
2023/05/26 02:42:34;;;;;;;14.82;3.70;;;;;;;11.12;63.67;102821.16;6246245;22;20054;-88
2023/05/26 02:44:59;;;;;;;21.98;3.83;;;;;;;11.13;63.33;102826.41;6245831;22;20011;-89
2023/05/26 02:47:25;;;;;;;14.80;3.33;;;;;;;11.12;63.32;102827.31;6246388;22;20090;-89
2023/05/26 02:49:50;;;;;;;16.90;4.50;;;;;;;11.12;63.63;102827.31;6273038;22;20309;-89
2023/05/26 02:52:15;;;;;;;24.40;4.57;;;;;;;11.03;63.46;102818.59;6274253;22;20011;-89
2023/05/26 02:54:40;;;;;;;18.55;3.55;;;;;;;11.02;63.71;102828.31;6272574;22;20082;-89
2023/05/26 02:57:06;;;;;;;16.88;3.65;;;;;;;10.92;63.88;102819.59;6245850;22;20031;-89
2023/05/26 02:59:31;;;;;;;19.15;4.00;;;;;;;10.86;64.12;102816.97;6273967;22;20312;-89
2023/05/26 03:01:56;;;;;;;18.80;4.60;;;;;;;10.86;64.27;102822.28;6272809;22;20035;-89
2023/05/26 03:04:21;;;;;;;18.50;5.03;;;;;;;10.77;64.03;102813.53;6246787;22;20221;-89
2023/05/26 03:06:47;;;;;;;21.00;3.67;;;;;;;10.75;64.49;102813.56;6246522;22;20309;-89
2023/05/26 03:09:12;;;;;;;21.25;3.67;;;;;;;10.72;64.23;102816.22;6272254;22;20018;-89
2023/05/26 03:11:37;;;;;;;19.27;4.32;;;;;;;10.73;64.43;102818.88;6245193;22;20007;-89
2023/05/26 03:14:03;;;;;;;16.58;3.53;;;;;;;10.70;64.60;102820.69;6244749;22;20003;-89
2023/05/26 03:16:28;;;;;;;20.52;4.43;;;;;;;10.66;64.88;102822.47;6244752;22;20392;-89
2023/05/26 03:18:54;;;;;;;16.35;4.35;;;;;;;10.67;64.48;102820.69;6246404;22;20421;-90
2023/05/26 03:21:19;;;;;;;17.73;3.72;;;;;;;10.65;64.60;102820.72;6272709;22;20525;-89
2023/05/26 03:23:45;;;;;;;15.00;3.38;;;;;;;10.68;64.89;102833.06;6271300;22;20488;-89
2023/05/26 03:26:11;;;;;;;24.58;5.18;;;;;;;10.61;64.92;102832.22;6243414;22;20059;-90
2023/05/26 03:28:36;;;;;;;16.70;4.22;;;;;;;10.61;65.03;102826.91;6246204;22;20038;-89
2023/05/26 03:31:02;;;;;;;23.05;4.50;;;;;;;10.68;65.02;102844.50;6271976;22;20003;-89
2023/05/26 03:33:28;;;;;;;20.50;4.45;;;;;;;10.63;64.96;102835.75;6272153;22;20022;-90
2023/05/26 03:35:54;;;;;;;17.52;4.05;;;;;;;10.59;64.96;102841.06;6244944;22;20175;-89
2023/05/26 03:38:19;;;;;;;20.48;3.90;;;;;;;10.48;65.31;102817.31;6246911;22;20071;-89
2023/05/26 03:40:44;;;;;;;15.30;4.45;;;;;;;10.44;65.49;102823.53;6245875;22;20000;-89
2023/05/26 03:43:10;;;;;;;16.73;3.60;;;;;;;10.51;65.48;102837.59;6273026;22;19999;-89
2023/05/26 03:45:35;;;;;;;17.58;4.00;;;;;;;10.54;65.72;102845.47;6245562;22;20482;-89
2023/05/26 03:48:01;;;;;;;19.70;4.43;;;;;;;10.51;65.71;102849.06;6272910;22;20003;-89
2023/05/26 03:50:26;;;;;;;16.05;3.83;;;;;;;10.52;65.47;102855.22;6273366;22;20312;-88
2023/05/26 03:52:51;;;;;;;24.02;4.32;;;;;;;10.53;65.60;102849.91;6272741;22;20015;-89
2023/05/26 03:55:20;;;;;;;19.42;4.63;;;;;;;10.51;65.93;102845.53;6271736;22;20004;-89
2023/05/26 03:57:45;;;;;;;22.30;4.60;;;;;;;10.54;65.54;102845.47;6272534;22;20027;-89
2023/05/26 04:00:11;;;;;;;25.40;4.63;;;;;;;10.57;65.46;102858.69;6273512;22;20427;-89
2023/05/26 04:02:37;;;;;;;22.63;4.35;;;;;;;10.46;65.70;102849.09;6273026;22;20493;-88
2023/05/26 04:05:03;;;;;;;20.58;4.35;;;;;;;10.53;65.77;102851.66;6246613;22;20004;-89
2023/05/26 04:07:29;;;;;;;22.60;4.70;;;;;;;10.51;65.69;102845.53;6273225;22;19999;-89
2023/05/26 04:09:54;;;;;;;16.90;4.07;;;;;;;10.48;65.89;102852.56;6244621;22;20035;-90
2023/05/26 04:12:19;;;;;;;25.27;4.60;;;;;;;10.43;65.93;102835.88;6245540;22;20003;-89
2023/05/26 04:14:45;;;;;;;22.52;4.53;;;;;;;10.52;66.18;102842.88;6272830;22;20011;-89
2023/05/26 04:17:10;;;;;;;26.83;4.97;;;;;;;10.57;66.04;102862.22;6244813;22;20167;-89
2023/05/26 04:19:35;;;;;;;19.25;4.38;;;;;;;10.53;65.64;102857.84;6245173;22;20015;-89
2023/05/26 04:22:00;;;;;;;21.05;4.25;;;;;;;10.61;66.10;102866.59;6270548;22;20026;-89
2023/05/26 04:24:27;;;;;;;36.80;5.38;;;;;;;10.57;66.24;102863.97;6244436;22;20007;-89
2023/05/26 04:26:52;;;;;;;24.08;4.47;;;;;;;10.56;65.99;102854.31;6244151;22;20082;-89
2023/05/26 04:29:18;;;;;;;16.98;3.42;;;;;;;10.63;66.23;102853.34;6272159;22;20003;-89
2023/05/26 04:31:44;;;;;;;19.05;4.45;;;;;;;10.57;66.48;102856.91;6243910;22;20074;-89
2023/05/26 04:34:10;;;;;;;23.48;4.63;;;;;;;10.60;66.42;102856.03;6271373;22;20007;-89
2023/05/26 04:36:39;;;;;;;20.08;4.70;;;;;;;10.63;66.31;102858.63;6245089;22;20319;-89
2023/05/26 04:39:05;;;;;;;24.50;4.40;;;;;;;10.66;66.12;102862.16;6245833;22;20507;-89
2023/05/26 04:41:32;;;;;;;35.17;4.55;;;;;;;10.67;66.04;102853.31;6271335;22;20023;-90
2023/05/26 04:43:58;;;;;;;24.50;4.53;;;;;;;10.76;66.04;102872.66;6245179;22;20094;-89
2023/05/26 04:46:23;;;;;;;29.40;4.65;;;;;;;10.80;66.22;102872.63;6271554;22;20019;-89
2023/05/26 04:48:49;;;;;;;16.00;3.88;;;;;;;10.69;66.24;102863.91;6244701;22;20007;-89
2023/05/26 04:51:14;;;;;;;20.10;4.57;;;;;;;10.63;66.36;102854.25;6271402;22;20011;-89
2023/05/26 04:53:40;;;;;;;23.55;4.95;;;;;;;10.79;66.08;102873.50;6243285;22;20516;-89
2023/05/26 04:56:06;;;;;;;22.38;4.70;;;;;;;10.83;66.12;102875.25;6269863;22;20007;-90
2023/05/26 04:58:36;;;;;;;23.75;5.00;;;;;;;10.87;65.57;102882.28;6243489;22;20004;-89
2023/05/26 05:01:02;;;;;;;21.60;5.03;;;;;;;10.79;66.04;102860.28;6271582;22;20423;-90
2023/05/26 05:03:29;;;;;;;23.80;5.13;;;;;;;10.86;66.20;102880.50;6244254;22;20027;-89
2023/05/26 05:05:54;;;;;;;24.08;4.47;;;;;;;10.92;66.01;102879.59;6271526;22;20011;-89
2023/05/26 05:08:19;;;;;;;22.95;4.55;;;;;;;10.95;65.79;102876.88;6270127;22;20003;-89
2023/05/26 05:10:44;;;;;;;22.48;5.32;;;;;;;11.05;65.55;102886.53;6245320;22;20517;-88
2023/05/26 05:13:10;;;;;;;30.25;4.97;;;;;;;11.06;65.58;102880.31;6244402;22;20000;-89
2023/05/26 05:15:35;;;;;;;31.02;4.75;;;;;;;11.20;65.61;102896.97;6244036;22;20003;-89
2023/05/26 05:18:02;;;;;;;23.55;4.47;;;;;;;11.15;64.97;102882.88;6244112;22;20042;-90
2023/05/26 05:20:27;;;;;;;19.00;4.70;;;;;;;11.24;65.04;102903.97;6244181;22;20007;-90
2023/05/26 05:22:53;;;;;;;24.88;4.70;;;;;;;11.24;65.09;102885.44;6271544;22;20007;-89
2023/05/26 05:25:18;;;;;;;25.08;5.72;;;;;;;11.26;65.40;102882.78;6243042;22;20572;-90
2023/05/26 05:27:44;;;;;;;22.10;4.85;;;;;;;11.33;64.91;102883.56;6244439;22;20012;-90
2023/05/26 05:30:10;;;;;;;26.10;5.20;;;;;;;11.33;64.73;102892.44;6243721;22;20010;-90
2023/05/26 05:32:35;;;;;;;22.88;5.05;;;;;;;11.35;64.46;102889.75;6271706;22;20000;-89
2023/05/26 05:35:00;;;;;;;19.35;3.88;;;;;;;11.44;64.86;102892.31;6270189;22;20547;-90
2023/05/26 05:37:26;;;;;;;28.98;4.93;;;;;;;11.51;64.30;102901.91;6272681;22;20057;-89
2023/05/26 05:39:51;;;;;;;26.00;5.25;;;;;;;11.53;64.49;102902.78;6271633;22;20071;-89
2023/05/26 05:42:17;;;;;;;24.15;5.68;;;;;;;11.56;64.12;102897.44;6269953;22;20103;-89
2023/05/26 05:44:42;;;;;;;21.15;4.70;;;;;;;11.59;63.83;102897.41;6269216;22;20003;-89
2023/05/26 05:47:07;;;;;;;23.27;4.95;;;;;;;11.69;63.90;102911.44;6243269;22;20023;-90
2023/05/26 05:49:32;;;;;;;27.17;5.20;;;;;;;11.73;64.06;102910.50;6269982;22;20031;-89
2023/05/26 05:51:58;;;;;;;19.58;4.25;;;;;;;11.72;63.90;102895.50;6243573;22;20022;-89
2023/05/26 05:54:23;;;;;;;21.73;4.38;;;;;;;11.86;63.82;102913.94;6271627;22;20427;-89
2023/05/26 05:56:49;;;;;;;26.88;4.85;;;;;;;11.90;62.76;102920.94;6243819;22;20043;-89
2023/05/26 05:59:14;;;;;;;21.25;4.30;;;;;;;11.85;63.20;102909.53;6271965;22;20437;-89
2023/05/26 06:01:40;;;;;;;25.27;5.15;;;;;;;11.94;63.33;102912.06;6271739;22;20298;-89
2023/05/26 06:04:05;;;;;;;25.67;4.88;;;;;;;12.03;63.51;102922.56;6244306;22;20090;-89
2023/05/26 06:06:31;;;;;;;24.45;5.57;;;;;;;12.07;63.27;102913.63;6271860;22;20389;-90
2023/05/26 06:08:57;;;;;;;20.92;4.72;;;;;;;12.15;62.43;102917.06;6242427;22;20437;-90
2023/05/26 06:11:22;;;;;;;23.13;4.65;;;;;;;12.23;62.51;102933.75;6244797;22;20008;-89
2023/05/26 06:13:47;;;;;;;20.05;5.07;;;;;;;12.27;61.91;102936.38;6243486;22;20011;-90
2023/05/26 06:16:13;;;;;;;20.27;4.50;;;;;;;12.28;61.92;102927.53;6243546;22;19999;-89
2023/05/26 06:18:38;;;;;;;22.73;4.50;;;;;;;12.47;61.89;102934.31;6245242;22;20534;-89
2023/05/26 06:21:04;;;;;;;28.90;4.47;;;;;;;12.63;61.64;102935.81;6244246;22;20035;-88
2023/05/26 06:23:29;;;;;;;23.45;4.82;;;;;;;12.77;60.84;102932.97;6242752;22;20018;-89
2023/05/26 06:25:55;;;;;;;27.52;4.88;;;;;;;12.90;59.85;102931.88;6268351;22;20004;-89
2023/05/26 06:28:20;;;;;;;25.17;4.57;;;;;;;13.05;59.81;102933.38;6244350;22;20343;-89
2023/05/26 06:30:45;;;;;;;27.30;5.07;;;;;;;13.04;59.41;102931.63;6242347;22;20336;-89
2023/05/26 06:33:11;;;;;;;20.10;4.85;;;;;;;13.17;59.66;102937.63;6271664;22;20078;-88
2023/05/26 06:35:36;;;;;;;19.77;4.32;;;;;;;13.32;58.87;102931.19;6244872;22;20003;-88
2023/05/26 06:38:01;;;;;;;27.10;4.90;;;;;;;13.57;58.78;102931.59;6270683;22;20010;-89
2023/05/26 06:40:26;;;;;;;27.23;5.47;;;;;;;13.63;57.72;102936.81;6244705;22;20552;-89
2023/05/26 06:42:52;;;;;;;26.20;4.90;;;;;;;13.57;57.44;102937.81;6269393;22;20061;-89
2023/05/26 06:45:17;;;;;;;20.85;4.95;;;;;;;13.52;57.24;102913.09;6269462;22;20364;-88
2023/05/26 06:47:42;;;;;;;24.42;4.63;;;;;;;13.82;56.96;102924.91;6270799;22;20086;-88
2023/05/26 06:50:08;;;;;;;27.42;4.65;;;;;;;14.06;56.85;102926.19;6269626;22;19999;-88
2023/05/26 06:52:33;;;;;;;22.77;5.57;;;;;;;14.21;56.90;102928.50;6243425;22;20018;-88
2023/05/26 06:54:58;;;;;;;24.92;4.82;;;;;;;14.38;55.32;102912.16;6270128;22;20001;-88
2023/05/26 06:57:24;;;;;;;19.30;4.80;;;;;;;14.54;54.79;102929.53;6241978;22;20014;-89
2023/05/26 06:59:49;;;;;;;21.00;5.18;;;;;;;14.66;54.70;102919.53;6269933;22;20000;-88
2023/05/26 07:02:14;;;;;;;17.25;4.55;;;;;;;14.75;54.37;102922.84;6271593;22;19999;-88
2023/05/26 07:04:41;;;;;;;16.40;4.40;;;;;;;14.83;53.92;102935.09;6270876;22;20386;-88
2023/05/26 07:07:07;;;;;;;24.63;5.80;;;;;;;14.73;53.21;102921.13;6242908;22;20007;-88
2023/05/26 07:09:32;;;;;;;19.27;4.53;;;;;;;14.87;52.96;102942.97;6244900;22;20490;-88
2023/05/26 07:11:57;;;;;;;21.05;4.50;;;;;;;14.92;52.76;102925.13;6271353;22;19992;-87
2023/05/26 07:14:23;;;;;;;16.55;3.92;;;;;;;15.14;54.70;102938.75;6271865;22;20007;-88
2023/05/26 07:16:48;;;;;;;16.65;4.05;;;;;;;15.37;53.92;102932.81;6243275;22;19999;-88
2023/05/26 07:19:13;;;;;;;25.65;5.47;;;;;;;15.56;51.80;102943.84;6244863;22;20145;-89
2023/05/26 07:21:38;;;;;;;22.45;4.53;;;;;;;15.77;52.67;102943.28;6272297;22;20419;-89
2023/05/26 07:24:04;;;;;;;16.63;5.03;;;;;;;16.01;54.17;102939.03;6245402;22;20447;-88
2023/05/26 07:26:29;;;;;;;17.98;4.57;;;;;;;16.20;49.62;102941.16;6245067;22;20011;-88
2023/05/26 07:28:55;;;;;;;22.38;4.43;;;;;;;16.27;50.08;102942.72;6245447;22;20329;-88
2023/05/26 07:31:20;;;;;;;20.55;4.97;;;;;;;16.68;49.18;102938.75;6246367;22;20095;-87
2023/05/26 07:33:47;;;;;;;21.73;4.50;;;;;;;17.31;48.63;102936.69;6246376;22;20046;-88
2023/05/26 07:36:12;;;;;;;16.98;4.22;;;;;;;17.88;48.06;102943.56;6273141;22;20384;-88
2023/05/26 07:38:38;;;;;;;17.20;3.80;;;;;;;18.25;44.98;102931.44;6272589;22;20003;-89
2023/05/26 07:41:03;;;;;;;21.65;4.72;;;;;;;18.34;45.10;102933.75;6244992;22;20077;-89
2023/05/26 07:43:28;;;;;;;16.98;4.10;;;;;;;18.22;45.20;102935.09;6244003;22;20374;-89
2023/05/26 07:45:54;;;;;;;15.43;3.92;;;;;;;18.37;45.04;102933.63;6272199;22;20502;-89
2023/05/26 07:48:19;;;;;;;17.17;3.95;;;;;;;18.61;43.36;102939.84;6244989;22;20004;-89
2023/05/26 07:50:44;;;;;;;13.32;3.85;;;;;;;18.93;43.38;102937.63;6274506;22;20007;-88
2023/05/26 07:53:12;;;;;;;19.67;3.65;;;;;;;19.45;42.94;102944.34;6245650;22;20003;-89
2023/05/26 07:55:38;;;;;;;16.35;4.30;;;;;;;20.02;41.07;102945.38;6244914;22;20007;-90
2023/05/26 07:58:03;;;;;;;18.02;4.80;;;;;;;20.31;40.42;102943.13;6246571;22;20035;-89
2023/05/26 08:00:29;;;;;;;16.63;3.72;;;;;;;20.43;39.53;102945.22;6272963;22;20012;-90
2023/05/26 08:02:54;;;;;;;18.42;3.58;;;;;;;20.67;38.85;102935.13;6270667;22;20008;-89
2023/05/26 08:05:19;;;;;;;11.73;3.67;;;;;;;21.05;38.06;102938.56;6245805;22;20086;-89
2023/05/26 08:07:45;;;;;;;16.58;4.03;;;;;;;21.26;37.21;102930.31;6245613;22;20034;-90
2023/05/26 08:10:10;;;;;;;15.93;4.18;;;;;;;21.63;37.27;102940.06;6272761;22;20004;-89
2023/05/26 08:12:36;;;;;;;17.48;4.07;;;;;;;22.04;35.62;102934.25;6244734;22;19999;-89
2023/05/26 08:15:13;;;;;;;14.20;3.88;;;;;;;22.42;37.08;102941.06;6270736;22;20008;-88
2023/05/26 08:17:38;;;;;;;17.23;4.28;;;;;;;22.35;36.04;102945.09;6273080;22;20344;-89
2023/05/26 08:20:04;;;;;;;15.27;4.30;;;;;;;22.43;34.75;102939.28;6244694;22;20008;-89
2023/05/26 08:22:29;;;;;;;17.40;5.07;;;;;;;22.77;33.43;102927.41;6272307;22;20035;-89
2023/05/26 08:24:55;;;;;;;16.55;3.90;;;;;;;23.04;34.15;102935.72;6269683;22;19999;-88
2023/05/26 08:27:20;;;;;;;16.05;4.45;;;;;;;23.34;33.90;102933.00;6272431;22;20031;-88
2023/05/26 08:29:45;;;;;;;14.68;4.55;;;;;;;23.46;32.91;102926.00;6271180;22;20003;-89
2023/05/26 08:32:11;;;;;;;13.27;4.32;;;;;;;23.54;33.99;102923.66;6271032;22;20000;-88
2023/05/26 08:34:36;;;;;;;17.80;4.10;;;;;;;23.94;31.80;102923.91;6271175;22;20088;-89
2023/05/26 08:37:01;;;;;;;18.73;4.57;;;;;;;24.20;31.52;102924.91;6270681;22;20011;-89
2023/05/26 08:39:27;;;;;;;12.55;3.60;;;;;;;24.85;31.92;102925.13;6271631;22;20462;-89
2023/05/26 08:41:59;;;;;;;19.45;4.30;;;;;;;25.14;31.96;102915.06;6271145;22;20000;-88
2023/05/26 08:44:25;;;;;;;13.68;4.10;;;;;;;25.49;31.33;102917.13;6271038;22;20455;-89
2023/05/26 08:46:55;;;;;;;16.00;4.20;;;;;;;25.66;30.03;102915.94;6270612;22;20024;-89
2023/05/26 08:49:21;;;;;;;15.10;3.85;;;;;;;25.47;30.07;102924.50;6245732;22;20003;-89
2023/05/26 08:52:13;;;;;;;15.05;3.83;;;;;;;25.49;29.76;102921.69;6245091;22;20399;-88
2023/05/26 08:54:39;;;;;;;16.50;4.68;;;;;;;25.68;28.83;102922.97;6243030;22;20454;-89
2023/05/26 08:57:06;;;;;;;13.18;4.60;;;;;;;25.72;29.74;102920.06;6243268;22;20444;-89
2023/05/26 08:59:32;;;;;;;13.05;4.13;;;;;;;25.53;30.35;102909.66;6270897;22;20526;-90
2023/05/26 09:01:58;;;;;;;17.30;4.65;;;;;;;25.36;30.21;102927.94;6268908;22;20416;-89
2023/05/26 09:04:25;;;;;;;17.15;4.57;;;;;;;25.34;29.35;102923.63;6243093;22;20056;-89
2023/05/26 09:06:50;;;;;;;17.55;4.40;;;;;;;25.26;29.65;102921.44;6242778;22;20451;-88
2023/05/26 09:09:17;;;;;;;16.85;5.00;;;;;;;25.12;29.85;102921.53;6270954;22;20004;-89
2023/05/26 09:11:43;;;;;;;11.43;3.95;;;;;;;24.84;31.13;102917.13;6270620;22;20000;-89
2023/05/26 09:14:13;;;;;;;12.23;3.85;;;;;;;24.70;29.59;102915.34;6269796;22;20420;-89
2023/05/26 09:16:39;;;;;;;15.85;4.43;;;;;;;24.59;31.19;102929.59;6271729;22;20480;-89
2023/05/26 09:19:04;;;;;;;17.17;4.03;;;;;;;24.59;30.56;102935.00;6267792;22;20035;-89
2023/05/26 09:21:30;;;;;;;15.88;4.15;;;;;;;24.35;30.81;102937.47;6243800;22;20007;-89
2023/05/26 09:23:58;;;;;;;16.80;4.22;;;;;;;24.17;30.54;102925.13;6244824;22;20004;-89
2023/05/26 09:26:31;;;;;;;15.18;4.25;;;;;;;24.17;30.60;102930.53;6271702;22;20000;-90
2023/05/26 09:28:57;;;;;;;16.42;4.65;;;;;;;24.05;32.41;102925.91;6271221;22;20031;-90
2023/05/26 09:31:23;;;;;;;16.33;4.78;;;;;;;24.00;32.36;102936.16;6271352;22;20031;-89
2023/05/26 09:33:49;;;;;;;16.40;4.78;;;;;;;24.14;31.43;102933.44;6272989;22;20328;-91
2023/05/26 09:36:22;;;;;;;15.10;4.22;;;;;;;24.00;31.69;102933.44;6244125;22;20008;-90
2023/05/26 09:38:50;;;;;;;15.13;4.15;;;;;;;24.05;33.54;102934.88;6244063;22;20003;-90
2023/05/26 09:41:18;;;;;;;14.52;4.22;;;;;;;24.24;30.47;102926.44;6272423;22;20000;-89
2023/05/26 09:43:43;;;;;;;14.95;4.10;;;;;;;24.50;30.57;102934.75;6271513;22;20821;-89
2023/05/26 09:46:21;;;;;;;17.25;4.88;;;;;;;24.62;30.63;102928.50;6272014;22;20008;-89
2023/05/26 09:48:50;;;;;;;13.38;4.15;;;;;;;24.49;29.39;102933.00;6272699;22;20033;-90
2023/05/26 09:51:20;;;;;;;16.42;4.53;;;;;;;24.41;30.40;102937.06;6271498;22;20090;-90
2023/05/26 09:53:46;;;;;;;15.88;4.78;;;;;;;24.42;30.34;102933.41;6243510;22;20008;-90
2023/05/26 09:56:16;;;;;;;15.57;4.25;;;;;;;24.66;30.69;102922.78;6244516;22;20099;-90
2023/05/26 09:58:45;;;;;;;15.30;4.05;;;;;;;24.80;29.90;102921.00;6271505;22;20382;-89
2023/05/26 10:01:11;;;;;;;10.30;3.60;;;;;;;25.16;30.78;102918.53;6271327;22;20008;-90
2023/05/26 10:03:37;;;;;;;12.48;4.00;;;;;;;25.34;30.76;102910.97;6271276;22;20059;-89
2023/05/26 10:06:03;;;;;;;17.17;4.70;;;;;;;25.51;30.33;102906.19;6244345;22;20004;-89
2023/05/26 10:08:30;;;;;;;12.30;3.75;;;;;;;25.69;29.62;102913.91;6269295;22;20004;-90
2023/05/26 10:10:56;;;;;;;13.85;4.07;;;;;;;25.82;29.67;102911.19;6269037;22;20357;-90
2023/05/26 10:13:23;;;;;;;13.60;4.00;;;;;;;25.95;28.11;102909.31;6271370;22;20007;-90
2023/05/26 10:15:49;;;;;;;13.85;4.60;;;;;;;26.07;28.11;102904.84;6239790;22;20031;-90
2023/05/26 10:18:14;;;;;;;14.75;4.68;;;;;;;26.28;28.10;102918.66;6244965;22;20038;-91
2023/05/26 10:20:46;;;;;;;16.10;4.40;;;;;;;26.50;29.25;102908.97;6243755;22;20027;-89
2023/05/26 10:23:19;;;;;;;13.65;4.47;;;;;;;26.63;28.81;102902.50;6242757;22;20015;-90
2023/05/26 10:25:54;;;;;;;14.02;4.20;;;;;;;26.52;27.59;102899.72;6271374;22;20069;-91
2023/05/26 10:28:37;;;;;;;12.95;4.57;;;;;;;26.43;26.87;102911.25;6271374;22;20031;-90
2023/05/26 10:31:02;;;;;;;8.20;3.55;;;;;;;26.43;27.40;102903.13;6270578;22;20004;-89
2023/05/26 10:33:42;;;;;;;15.05;4.55;;;;;;;26.77;27.17;102903.31;6244871;22;20433;-90
2023/05/26 10:36:17;;;;;;;15.55;5.00;;;;;;;26.80;26.27;102900.34;6244321;22;20069;-90
2023/05/26 10:38:45;;;;;;;11.40;4.40;;;;;;;26.91;26.17;102895.84;6272641;22;20006;-91
2023/05/26 10:41:11;;;;;;;16.85;4.53;;;;;;;27.04;26.91;102900.28;6245258;22;20011;-90
2023/05/26 10:43:37;;;;;;;13.20;5.43;;;;;;;26.88;26.13;102900.63;6272555;22;20346;-90
2023/05/26 10:46:06;;;;;;;12.52;3.92;;;;;;;26.83;25.03;102905.53;6271550;22;20003;-91
2023/05/26 10:48:40;;;;;;;16.33;4.57;;;;;;;26.79;26.55;102895.91;6271554;22;20423;-90
2023/05/26 10:51:06;;;;;;;13.82;4.30;;;;;;;26.76;26.73;102901.56;6245218;22;20442;-90
2023/05/26 10:53:32;;;;;;;12.15;4.75;;;;;;;27.08;25.61;102893.63;6245397;22;20397;-90
2023/05/26 10:56:02;;;;;;;11.27;4.25;;;;;;;27.35;24.72;102896.09;6271044;22;20523;-91
2023/05/26 10:58:46;;;;;;;13.55;4.50;;;;;;;27.41;24.75;102903.72;6249747;22;20107;-90
2023/05/26 11:01:19;;;;;;;12.88;4.13;;;;;;;27.19;23.82;102885.56;6272981;22;20448;-91
2023/05/26 11:03:56;;;;;;;16.42;4.45;;;;;;;27.18;24.70;102879.25;6272892;22;20354;-91
2023/05/26 11:06:43;;;;;;;11.13;4.10;;;;;;;27.39;25.94;102893.00;6272718;22;20623;-90
2023/05/26 11:09:09;;;;;;;15.85;3.63;;;;;;;27.32;24.27;102883.59;6271863;22;20040;-91
2023/05/26 11:11:38;;;;;;;14.90;3.88;;;;;;;27.25;23.29;102886.94;6245229;22;20010;-91
2023/05/26 11:14:12;;;;;;;14.50;4.57;;;;;;;27.11;23.79;102890.72;6245158;22;20031;-91
2023/05/26 11:16:43;;;;;;;13.65;4.18;;;;;;;27.16;25.24;102883.09;6246060;22;19999;-90